sensor_id;sensor_type;location;lat;lon;timestamp;pressure;altitude;pressure_sealevel;temperature;humidity
45357;BME280;31092;51.924;21.448;2023-06-22T00:01:18;100295.28;;;19.12;100.00
45357;BME280;31092;51.924;21.448;2023-06-22T00:04:38;100303.63;;;19.17;100.00
45357;BME280;31092;51.924;21.448;2023-06-22T00:06:47;100329.97;;;19.36;100.00
45357;BME280;31092;51.924;21.448;2023-06-22T00:09:13;100255.31;;;18.93;100.00
45357;BME280;31092;51.924;21.448;2023-06-22T00:11:39;100327.63;;;19.40;100.00
45357;BME280;31092;51.924;21.448;2023-06-22T00:14:05;100280.41;;;19.08;100.00
45357;BME280;31092;51.924;21.448;2023-06-22T00:16:34;100252.97;;;18.96;100.00
45357;BME280;31092;51.924;21.448;2023-06-22T00:19:04;100249.47;;;18.89;100.00
45357;BME280;31092;51.924;21.448;2023-06-22T00:21:31;100315.34;;;19.24;100.00
45357;BME280;31092;51.924;21.448;2023-06-22T00:23:57;100323.72;;;19.29;100.00
45357;BME280;31092;51.924;21.448;2023-06-22T00:26:23;100263.53;;;18.86;100.00
45357;BME280;31092;51.924;21.448;2023-06-22T00:29:09;100335.72;;;19.28;100.00
45357;BME280;31092;51.924;21.448;2023-06-22T00:31:49;100268.16;;;18.85;100.00
45357;BME280;31092;51.924;21.448;2023-06-22T00:34:15;100314.34;;;19.19;100.00
45357;BME280;31092;51.924;21.448;2023-06-22T00:36:43;100252.44;;;18.81;100.00
45357;BME280;31092;51.924;21.448;2023-06-22T00:39:09;100263.13;;;18.82;100.00
45357;BME280;31092;51.924;21.448;2023-06-22T00:41:35;100250.13;;;18.78;100.00
45357;BME280;31092;51.924;21.448;2023-06-22T00:44:01;100272.59;;;18.80;100.00
45357;BME280;31092;51.924;21.448;2023-06-22T00:46:37;100263.81;;;18.71;100.00
45357;BME280;31092;51.924;21.448;2023-06-22T00:49:03;100333.94;;;19.09;100.00
45357;BME280;31092;51.924;21.448;2023-06-22T00:51:52;100275.75;;;18.77;100.00
45357;BME280;31092;51.924;21.448;2023-06-22T00:54:17;100310.72;;;18.93;100.00
45357;BME280;31092;51.924;21.448;2023-06-22T01:00:45;100329.03;;;18.86;100.00
45357;BME280;31092;51.924;21.448;2023-06-22T01:03:11;100248.84;;;18.35;100.00
45357;BME280;31092;51.924;21.448;2023-06-22T01:05:39;100262.69;;;18.40;100.00
45357;BME280;31092;51.924;21.448;2023-06-22T01:08:31;100246.81;;;18.24;100.00
45357;BME280;31092;51.924;21.448;2023-06-22T01:14:15;100325.97;;;18.56;100.00
45357;BME280;31092;51.924;21.448;2023-06-22T01:16:54;100250.22;;;18.06;100.00
45357;BME280;31092;51.924;21.448;2023-06-22T01:31:42;100301.59;;;18.09;100.00
45357;BME280;31092;51.924;21.448;2023-06-22T01:38:37;100305.16;;;18.10;100.00
45357;BME280;31092;51.924;21.448;2023-06-22T01:44:02;100229.38;;;17.40;100.00
45357;BME280;31092;51.924;21.448;2023-06-22T01:46:29;100298.53;;;17.79;100.00
45357;BME280;31092;51.924;21.448;2023-06-22T01:49:12;100275.66;;;17.60;100.00
45357;BME280;31092;51.924;21.448;2023-06-22T01:51:48;100248.22;;;17.35;100.00
45357;BME280;31092;51.924;21.448;2023-06-22T01:54:43;100318.81;;;17.70;100.00
45357;BME280;31092;51.924;21.448;2023-06-22T01:57:29;100232.75;;;17.16;100.00
45357;BME280;31092;51.924;21.448;2023-06-22T02:00:18;100312.53;;;17.63;100.00
45357;BME280;31092;51.924;21.448;2023-06-22T02:03:03;100241.75;;;17.16;100.00
45357;BME280;31092;51.924;21.448;2023-06-22T02:06:02;100312.94;;;17.60;100.00
45357;BME280;31092;51.924;21.448;2023-06-22T02:08:51;100309.78;;;17.50;100.00
45357;BME280;31092;51.924;21.448;2023-06-22T02:11:30;100307.50;;;17.46;100.00
45357;BME280;31092;51.924;21.448;2023-06-22T02:13:57;100236.09;;;17.05;100.00
45357;BME280;31092;51.924;21.448;2023-06-22T02:16:26;100305.41;;;17.48;100.00
45357;BME280;31092;51.924;21.448;2023-06-22T02:18:55;100288.22;;;17.35;100.00
45357;BME280;31092;51.924;21.448;2023-06-22T02:21:27;100301.19;;;17.39;100.00
45357;BME280;31092;51.924;21.448;2023-06-22T02:24:09;100298.91;;;17.30;100.00
45357;BME280;31092;51.924;21.448;2023-06-22T02:26:35;100332.44;;;17.37;100.00
45357;BME280;31092;51.924;21.448;2023-06-22T02:29:14;100337.88;;;17.37;100.00
45357;BME280;31092;51.924;21.448;2023-06-22T02:31:40;100329.06;;;17.28;100.00
45357;BME280;31092;51.924;21.448;2023-06-22T02:34:25;100352.53;;;17.42;100.00
45357;BME280;31092;51.924;21.448;2023-06-22T02:36:51;100366.38;;;17.54;100.00
45357;BME280;31092;51.924;21.448;2023-06-22T02:39:25;100363.22;;;17.57;100.00
45357;BME280;31092;51.924;21.448;2023-06-22T02:42:20;100363.63;;;17.67;100.00
45357;BME280;31092;51.924;21.448;2023-06-22T02:45:07;100359.03;;;17.68;100.00
45357;BME280;31092;51.924;21.448;2023-06-22T02:47:32;100338.28;;;17.60;100.00
45357;BME280;31092;51.924;21.448;2023-06-22T02:57:08;100327.00;;;17.83;100.00
45357;BME280;31092;51.924;21.448;2023-06-22T02:59:41;100369.09;;;18.14;100.00
45357;BME280;31092;51.924;21.448;2023-06-22T03:02:08;100387.72;;;18.30;100.00
45357;BME280;31092;51.924;21.448;2023-06-22T03:04:35;100320.28;;;17.92;100.00
45357;BME280;31092;51.924;21.448;2023-06-22T03:07:01;100387.31;;;18.40;100.00
45357;BME280;31092;51.924;21.448;2023-06-22T03:09:27;100327.78;;;18.10;100.00
45357;BME280;31092;51.924;21.448;2023-06-22T03:11:54;100310.59;;;18.10;100.00
45357;BME280;31092;51.924;21.448;2023-06-22T03:14:20;100367.34;;;18.46;100.00
45357;BME280;31092;51.924;21.448;2023-06-22T03:16:45;100388.72;;;18.56;100.00
45357;BME280;31092;51.924;21.448;2023-06-22T03:19:11;100378.47;;;18.51;100.00
45357;BME280;31092;51.924;21.448;2023-06-22T03:21:37;100391.66;;;18.61;100.00
45357;BME280;31092;51.924;21.448;2023-06-22T03:24:24;100391.19;;;18.64;100.00
45357;BME280;31092;51.924;21.448;2023-06-22T03:27:00;100323.78;;;18.19;100.00
45357;BME280;31092;51.924;21.448;2023-06-22T03:29:47;100408.84;;;18.68;100.00
45357;BME280;31092;51.924;21.448;2023-06-22T03:32:23;100395.22;;;18.61;100.00
45357;BME280;31092;51.924;21.448;2023-06-22T03:34:56;100383.88;;;18.64;100.00
45357;BME280;31092;51.924;21.448;2023-06-22T03:37:30;100406.72;;;18.77;100.00
45357;BME280;31092;51.924;21.448;2023-06-22T03:39:56;100367.31;;;18.53;100.00
45357;BME280;31092;51.924;21.448;2023-06-22T03:42:35;100406.31;;;18.80;100.00
45357;BME280;31092;51.924;21.448;2023-06-22T03:45:02;100411.94;;;18.78;100.00
45357;BME280;31092;51.924;21.448;2023-06-22T03:47:29;100371.69;;;18.60;100.00
45357;BME280;31092;51.924;21.448;2023-06-22T03:49:54;100348.66;;;18.50;100.00
45357;BME280;31092;51.924;21.448;2023-06-22T03:52:21;100346.78;;;18.50;100.00
45357;BME280;31092;51.924;21.448;2023-06-22T03:54:47;100364.97;;;18.70;100.00
45357;BME280;31092;51.924;21.448;2023-06-22T03:57:13;100340.44;;;18.56;100.00
45357;BME280;31092;51.924;21.448;2023-06-22T04:02:43;100351.91;;;18.78;100.00
45357;BME280;31092;51.924;21.448;2023-06-22T04:05:26;100421.22;;;19.22;100.00
45357;BME280;31092;51.924;21.448;2023-06-22T04:07:52;100339.56;;;18.76;100.00
45357;BME280;31092;51.924;21.448;2023-06-22T04:10:17;100406.94;;;19.20;100.00
45357;BME280;31092;51.924;21.448;2023-06-22T04:12:43;100392.47;;;19.20;100.00
45357;BME280;31092;51.924;21.448;2023-06-22T04:15:09;100420.94;;;19.37;100.00
45357;BME280;31092;51.924;21.448;2023-06-22T04:17:34;100427.81;;;19.46;100.00
45357;BME280;31092;51.924;21.448;2023-06-22T04:20:00;100384.25;;;19.20;100.00
45357;BME280;31092;51.924;21.448;2023-06-22T04:22:25;100371.25;;;19.22;100.00
45357;BME280;31092;51.924;21.448;2023-06-22T04:24:51;100354.47;;;19.18;100.00
45357;BME280;31092;51.924;21.448;2023-06-22T04:27:17;100410.53;;;19.52;100.00
45357;BME280;31092;51.924;21.448;2023-06-22T04:29:43;100411.56;;;19.58;100.00
45357;BME280;31092;51.924;21.448;2023-06-22T04:32:17;100416.78;;;19.66;100.00
45357;BME280;31092;51.924;21.448;2023-06-22T04:34:43;100384.75;;;19.42;100.00
45357;BME280;31092;51.924;21.448;2023-06-22T04:37:08;100424.31;;;19.71;100.00
45357;BME280;31092;51.924;21.448;2023-06-22T04:39:34;100429.72;;;19.77;100.00
45357;BME280;31092;51.924;21.448;2023-06-22T04:42:00;100353.72;;;19.36;100.00
45357;BME280;31092;51.924;21.448;2023-06-22T04:44:26;100429.28;;;19.80;100.00
45357;BME280;31092;51.924;21.448;2023-06-22T04:46:56;100437.84;;;19.91;100.00
45357;BME280;31092;51.924;21.448;2023-06-22T04:49:26;100363.66;;;19.55;100.00
45357;BME280;31092;51.924;21.448;2023-06-22T04:52:02;100443.25;;;19.97;100.00
45357;BME280;31092;51.924;21.448;2023-06-22T04:54:28;100440.53;;;19.97;100.00
45357;BME280;31092;51.924;21.448;2023-06-22T04:56:54;100427.13;;;19.89;100.00
45357;BME280;31092;51.924;21.448;2023-06-22T04:59:27;100443.00;;;19.99;100.00
45357;BME280;31092;51.924;21.448;2023-06-22T05:01:56;100445.97;;;19.97;100.00
45357;BME280;31092;51.924;21.448;2023-06-22T05:04:22;100444.97;;;19.92;100.00
45357;BME280;31092;51.924;21.448;2023-06-22T05:06:54;100396.41;;;19.62;100.00
45357;BME280;31092;51.924;21.448;2023-06-22T05:09:20;100384.69;;;19.55;100.00
45357;BME280;31092;51.924;21.448;2023-06-22T05:15:05;100425.00;;;19.91;100.00
45357;BME280;31092;51.924;21.448;2023-06-22T05:17:38;100443.88;;;19.99;100.00
45357;BME280;31092;51.924;21.448;2023-06-22T05:20:09;100422.06;;;19.93;100.00
45357;BME280;31092;51.924;21.448;2023-06-22T05:22:35;100383.31;;;19.71;100.00
45357;BME280;31092;51.924;21.448;2023-06-22T05:25:01;100421.13;;;19.99;100.00
45357;BME280;31092;51.924;21.448;2023-06-22T05:27:29;100444.81;;;20.12;100.00
45357;BME280;31092;51.924;21.448;2023-06-22T05:29:55;100423.81;;;20.05;100.00
45357;BME280;31092;51.924;21.448;2023-06-22T05:32:20;100366.09;;;19.70;100.00
45357;BME280;31092;51.924;21.448;2023-06-22T05:34:46;100385.13;;;19.83;100.00
45357;BME280;31092;51.924;21.448;2023-06-22T05:37:12;100375.31;;;19.76;100.00
45357;BME280;31092;51.924;21.448;2023-06-22T05:39:38;100383.66;;;19.81;100.00
45357;BME280;31092;51.924;21.448;2023-06-22T05:42:12;100435.34;;;20.14;100.00
45357;BME280;31092;51.924;21.448;2023-06-22T05:44:41;100378.44;;;19.79;100.00
45357;BME280;31092;51.924;21.448;2023-06-22T05:47:06;100429.41;;;20.17;100.00
45357;BME280;31092;51.924;21.448;2023-06-22T05:49:32;100413.47;;;20.14;100.00
45357;BME280;31092;51.924;21.448;2023-06-22T05:52:00;100437.53;;;20.24;100.00
45357;BME280;31092;51.924;21.448;2023-06-22T05:54:32;100373.50;;;19.88;100.00
45357;BME280;31092;51.924;21.448;2023-06-22T05:57:01;100448.75;;;20.41;100.00
45357;BME280;31092;51.924;21.448;2023-06-22T05:59:27;100378.47;;;19.98;100.00
45357;BME280;31092;51.924;21.448;2023-06-22T06:01:52;100388.72;;;20.02;100.00
45357;BME280;31092;51.924;21.448;2023-06-22T06:04:18;100402.28;;;20.16;100.00
45357;BME280;31092;51.924;21.448;2023-06-22T06:06:44;100402.56;;;20.07;100.00
45357;BME280;31092;51.924;21.448;2023-06-22T06:09:09;100480.28;;;20.50;100.00
45357;BME280;31092;51.924;21.448;2023-06-22T06:11:37;100480.91;;;20.45;100.00
45357;BME280;31092;51.924;21.448;2023-06-22T06:14:03;100458.78;;;20.28;100.00
45357;BME280;31092;51.924;21.448;2023-06-22T06:16:28;100430.91;;;20.13;100.00
45357;BME280;31092;51.924;21.448;2023-06-22T06:18:54;100431.97;;;20.12;100.00
45357;BME280;31092;51.924;21.448;2023-06-22T06:21:21;100419.38;;;20.11;100.00
45357;BME280;31092;51.924;21.448;2023-06-22T06:23:48;100487.78;;;20.54;100.00
45357;BME280;31092;51.924;21.448;2023-06-22T06:26:13;100418.88;;;20.21;100.00
45357;BME280;31092;51.924;21.448;2023-06-22T06:28:42;100423.97;;;20.36;100.00
45357;BME280;31092;51.924;21.448;2023-06-22T06:31:08;100420.69;;;20.45;100.00
45357;BME280;31092;51.924;21.448;2023-06-22T06:33:34;100476.09;;;20.84;100.00
45357;BME280;31092;51.924;21.448;2023-06-22T06:36:00;100487.81;;;20.91;100.00
45357;BME280;31092;51.924;21.448;2023-06-22T06:38:31;100491.31;;;20.98;100.00
45357;BME280;31092;51.924;21.448;2023-06-22T06:40:58;100483.59;;;21.14;100.00
45357;BME280;31092;51.924;21.448;2023-06-22T06:43:23;100434.13;;;20.90;100.00
45357;BME280;31092;51.924;21.448;2023-06-22T06:45:50;100425.22;;;20.95;100.00
45357;BME280;31092;51.924;21.448;2023-06-22T06:48:16;100488.81;;;21.34;100.00
45357;BME280;31092;51.924;21.448;2023-06-22T06:50:42;100486.09;;;21.34;100.00
45357;BME280;31092;51.924;21.448;2023-06-22T06:53:09;100491.41;;;21.47;100.00
45357;BME280;31092;51.924;21.448;2023-06-22T06:55:35;100481.34;;;21.41;100.00
45357;BME280;31092;51.924;21.448;2023-06-22T06:58:01;100414.66;;;20.98;100.00
45357;BME280;31092;51.924;21.448;2023-06-22T07:00:28;100436.66;;;21.10;100.00
45357;BME280;31092;51.924;21.448;2023-06-22T07:02:53;100413.63;;;20.99;100.00
45357;BME280;31092;51.924;21.448;2023-06-22T07:05:19;100480.38;;;21.35;100.00
45357;BME280;31092;51.924;21.448;2023-06-22T07:07:47;100462.56;;;21.26;100.00
45357;BME280;31092;51.924;21.448;2023-06-22T07:10:15;100474.50;;;21.32;100.00
45357;BME280;31092;51.924;21.448;2023-06-22T07:12:40;100471.94;;;21.37;100.00
45357;BME280;31092;51.924;21.448;2023-06-22T07:15:09;100454.50;;;21.31;100.00
45357;BME280;31092;51.924;21.448;2023-06-22T07:17:36;100488.16;;;21.38;100.00
45357;BME280;31092;51.924;21.448;2023-06-22T07:20:03;100493.84;;;21.37;100.00
45357;BME280;31092;51.924;21.448;2023-06-22T07:22:33;100466.44;;;21.18;100.00
45357;BME280;31092;51.924;21.448;2023-06-22T07:24:59;100430.94;;;20.93;100.00
45357;BME280;31092;51.924;21.448;2023-06-22T07:27:24;100475.50;;;21.19;100.00
45357;BME280;31092;51.924;21.448;2023-06-22T07:29:50;100487.00;;;21.27;100.00
45357;BME280;31092;51.924;21.448;2023-06-22T07:32:16;100481.44;;;21.34;100.00
45357;BME280;31092;51.924;21.448;2023-06-22T07:34:41;100456.94;;;21.21;100.00
45357;BME280;31092;51.924;21.448;2023-06-22T07:37:07;100435.31;;;21.13;100.00
45357;BME280;31092;51.924;21.448;2023-06-22T07:39:33;100504.19;;;21.53;100.00
45357;BME280;31092;51.924;21.448;2023-06-22T07:42:07;100435.91;;;21.33;100.00
45357;BME280;31092;51.924;21.448;2023-06-22T07:44:43;100498.84;;;21.88;100.00
45357;BME280;31092;51.924;21.448;2023-06-22T07:47:08;100480.91;;;21.74;100.00
45357;BME280;31092;51.924;21.448;2023-06-22T07:49:34;100417.97;;;21.37;100.00
45357;BME280;31092;51.924;21.448;2023-06-22T07:52:00;100440.69;;;21.56;100.00
45357;BME280;31092;51.924;21.448;2023-06-22T07:54:26;100412.66;;;21.54;100.00
45357;BME280;31092;51.924;21.448;2023-06-22T07:56:52;100444.00;;;21.88;100.00
45357;BME280;31092;51.924;21.448;2023-06-22T07:59:17;100428.13;;;21.90;100.00
45357;BME280;31092;51.924;21.448;2023-06-22T08:01:43;100504.44;;;22.35;100.00
45357;BME280;31092;51.924;21.448;2023-06-22T08:04:09;100495.69;;;22.27;100.00
45357;BME280;31092;51.924;21.448;2023-06-22T08:06:34;100444.47;;;22.09;100.00
45357;BME280;31092;51.924;21.448;2023-06-22T08:09:00;100501.22;;;22.62;100.00
45357;BME280;31092;51.924;21.448;2023-06-22T08:11:25;100494.03;;;22.73;100.00
45357;BME280;31092;51.924;21.448;2023-06-22T08:13:51;100495.25;;;22.88;100.00
45357;BME280;31092;51.924;21.448;2023-06-22T08:16:17;100481.41;;;22.95;100.00
45357;BME280;31092;51.924;21.448;2023-06-22T08:18:43;100497.78;;;23.02;100.00
45357;BME280;31092;51.924;21.448;2023-06-22T08:21:08;100479.03;;;22.99;100.00
45357;BME280;31092;51.924;21.448;2023-06-22T08:23:34;100499.88;;;23.11;100.00
45357;BME280;31092;51.924;21.448;2023-06-22T08:26:00;100462.03;;;22.90;100.00
45357;BME280;31092;51.924;21.448;2023-06-22T08:28:26;100505.59;;;23.22;100.00
45357;BME280;31092;51.924;21.448;2023-06-22T08:30:51;100498.53;;;23.26;100.00
45357;BME280;31092;51.924;21.448;2023-06-22T08:33:17;100490.75;;;23.63;100.00
45357;BME280;31092;51.924;21.448;2023-06-22T08:35:43;100418.94;;;23.59;100.00
45357;BME280;31092;51.924;21.448;2023-06-22T08:38:08;100476.44;;;24.23;100.00
45357;BME280;31092;51.924;21.448;2023-06-22T08:40:34;100472.53;;;24.53;100.00
45357;BME280;31092;51.924;21.448;2023-06-22T08:42:59;100473.94;;;24.55;100.00
45357;BME280;31092;51.924;21.448;2023-06-22T08:45:38;100404.38;;;24.09;100.00
45357;BME280;31092;51.924;21.448;2023-06-22T08:48:11;100449.50;;;24.25;100.00
45357;BME280;31092;51.924;21.448;2023-06-22T08:50:36;100396.97;;;24.27;100.00
45357;BME280;31092;51.924;21.448;2023-06-22T08:53:02;100461.22;;;24.71;100.00
45357;BME280;31092;51.924;21.448;2023-06-22T08:55:27;100430.22;;;24.59;100.00
45357;BME280;31092;51.924;21.448;2023-06-22T08:57:53;100409.34;;;24.29;100.00
45357;BME280;31092;51.924;21.448;2023-06-22T09:00:19;100408.84;;;24.32;100.00
45357;BME280;31092;51.924;21.448;2023-06-22T09:02:46;100448.38;;;24.77;100.00
45357;BME280;31092;51.924;21.448;2023-06-22T09:05:12;100450.44;;;25.08;100.00
45357;BME280;31092;51.924;21.448;2023-06-22T09:07:37;100441.19;;;25.42;100.00
45357;BME280;31092;51.924;21.448;2023-06-22T09:10:04;100442.19;;;25.85;100.00
45357;BME280;31092;51.924;21.448;2023-06-22T09:12:32;100435.72;;;26.01;100.00
45357;BME280;31092;51.924;21.448;2023-06-22T09:15:01;100360.44;;;25.46;100.00
45357;BME280;31092;51.924;21.448;2023-06-22T09:17:27;100378.69;;;25.52;100.00
45357;BME280;31092;51.924;21.448;2023-06-22T09:19:53;100432.16;;;26.06;100.00
45357;BME280;31092;51.924;21.448;2023-06-22T09:22:19;100422.06;;;26.21;100.00
45357;BME280;31092;51.924;21.448;2023-06-22T09:24:44;100414.34;;;26.23;100.00
45357;BME280;31092;51.924;21.448;2023-06-22T09:27:10;100426.59;;;26.38;100.00
45357;BME280;31092;51.924;21.448;2023-06-22T09:29:35;100405.09;;;26.45;100.00
45357;BME280;31092;51.924;21.448;2023-06-22T09:32:01;100421.16;;;26.48;100.00
45357;BME280;31092;51.924;21.448;2023-06-22T09:34:26;100429.47;;;26.53;100.00
45357;BME280;31092;51.924;21.448;2023-06-22T09:36:52;100436.81;;;26.37;100.00
45357;BME280;31092;51.924;21.448;2023-06-22T09:39:18;100438.47;;;26.38;100.00
45357;BME280;31092;51.924;21.448;2023-06-22T09:41:44;100398.09;;;26.32;100.00
45357;BME280;31092;51.924;21.448;2023-06-22T09:44:09;100363.25;;;26.21;100.00
45357;BME280;31092;51.924;21.448;2023-06-22T09:46:35;100356.69;;;26.32;100.00
45357;BME280;31092;51.924;21.448;2023-06-22T09:49:00;100385.03;;;26.60;100.00
45357;BME280;31092;51.924;21.448;2023-06-22T09:51:26;100351.31;;;26.53;100.00
45357;BME280;31092;51.924;21.448;2023-06-22T09:53:52;100402.56;;;26.81;100.00
45357;BME280;31092;51.924;21.448;2023-06-22T09:56:19;100366.31;;;26.72;100.00
45357;BME280;31092;51.924;21.448;2023-06-22T09:58:46;100422.00;;;27.06;100.00
45357;BME280;31092;51.924;21.448;2023-06-22T10:01:12;100416.47;;;27.01;100.00
45357;BME280;31092;51.924;21.448;2023-06-22T10:03:39;100419.28;;;27.11;100.00
45357;BME280;31092;51.924;21.448;2023-06-22T10:06:06;100402.47;;;27.38;100.00
45357;BME280;31092;51.924;21.448;2023-06-22T10:08:32;100371.22;;;27.38;100.00
45357;BME280;31092;51.924;21.448;2023-06-22T10:10:58;100422.22;;;27.83;100.00
45357;BME280;31092;51.924;21.448;2023-06-22T10:13:23;100361.00;;;27.33;100.00
45357;BME280;31092;51.924;21.448;2023-06-22T10:15:49;100375.91;;;27.27;100.00
45357;BME280;31092;51.924;21.448;2023-06-22T10:18:17;100405.56;;;27.47;100.00
45357;BME280;31092;51.924;21.448;2023-06-22T10:20:43;100380.66;;;27.37;100.00
45357;BME280;31092;51.924;21.448;2023-06-22T10:23:08;100355.16;;;27.19;100.00
45357;BME280;31092;51.924;21.448;2023-06-22T10:25:34;100366.25;;;27.30;100.00
45357;BME280;31092;51.924;21.448;2023-06-22T10:27:59;100422.19;;;27.73;100.00
45357;BME280;31092;51.924;21.448;2023-06-22T10:30:25;100371.25;;;27.74;100.00
45357;BME280;31092;51.924;21.448;2023-06-22T10:32:50;100413.06;;;28.13;100.00
45357;BME280;31092;51.924;21.448;2023-06-22T10:35:16;100368.53;;;27.84;100.00
45357;BME280;31092;51.924;21.448;2023-06-22T10:37:45;100366.31;;;27.76;100.00
45357;BME280;31092;51.924;21.448;2023-06-22T10:40:15;100402.56;;;28.15;100.00
45357;BME280;31092;51.924;21.448;2023-06-22T10:42:41;100338.34;;;27.87;100.00
45357;BME280;31092;51.924;21.448;2023-06-22T10:45:07;100388.44;;;28.01;100.00
45357;BME280;31092;51.924;21.448;2023-06-22T10:47:34;100396.72;;;28.06;100.00
45357;BME280;31092;51.924;21.448;2023-06-22T10:49:59;100370.44;;;27.88;100.00
45357;BME280;31092;51.924;21.448;2023-06-22T10:52:25;100411.44;;;27.97;100.00
45357;BME280;31092;51.924;21.448;2023-06-22T10:54:50;100400.63;;;28.05;100.00
45357;BME280;31092;51.924;21.448;2023-06-22T10:57:17;100375.13;;;28.03;100.00
45357;BME280;31092;51.924;21.448;2023-06-22T10:59:42;100397.28;;;28.24;100.00
45357;BME280;31092;51.924;21.448;2023-06-22T11:02:08;100407.53;;;28.28;100.00
45357;BME280;31092;51.924;21.448;2023-06-22T11:04:33;100369.34;;;28.00;100.00
45357;BME280;31092;51.924;21.448;2023-06-22T11:06:59;100394.53;;;28.03;100.00
45357;BME280;31092;51.924;21.448;2023-06-22T11:09:24;100344.97;;;27.71;100.00
45357;BME280;31092;51.924;21.448;2023-06-22T11:11:51;100329.47;;;27.60;100.00
45357;BME280;31092;51.924;21.448;2023-06-22T11:14:20;100325.03;;;27.64;100.00
45357;BME280;31092;51.924;21.448;2023-06-22T11:16:46;100358.50;;;28.13;100.00
45357;BME280;31092;51.924;21.448;2023-06-22T11:19:12;100336.91;;;28.26;100.00
45357;BME280;31092;51.924;21.448;2023-06-22T11:21:38;100334.97;;;28.16;100.00
45357;BME280;31092;51.924;21.448;2023-06-22T11:24:04;100343.88;;;27.92;100.00
45357;BME280;31092;51.924;21.448;2023-06-22T11:26:29;100393.69;;;28.28;100.00
45357;BME280;31092;51.924;21.448;2023-06-22T11:28:57;100318.41;;;27.85;100.00
45357;BME280;31092;51.924;21.448;2023-06-22T11:31:22;100323.94;;;27.96;100.00
45357;BME280;31092;51.924;21.448;2023-06-22T11:33:48;100318.94;;;28.03;100.00
45357;BME280;31092;51.924;21.448;2023-06-22T11:36:14;100372.88;;;28.51;100.00
45357;BME280;31092;51.924;21.448;2023-06-22T11:38:40;100363.97;;;28.59;100.00
45357;BME280;31092;51.924;21.448;2023-06-22T11:41:06;100380.19;;;28.92;100.00
45357;BME280;31092;51.924;21.448;2023-06-22T11:43:32;100358.81;;;28.92;100.00
45357;BME280;31092;51.924;21.448;2023-06-22T11:45:58;100326.84;;;28.60;100.00
45357;BME280;31092;51.924;21.448;2023-06-22T11:48:24;100332.91;;;28.62;100.00
45357;BME280;31092;51.924;21.448;2023-06-22T11:50:50;100378.22;;;28.97;100.00
45357;BME280;31092;51.924;21.448;2023-06-22T11:53:15;100323.78;;;28.62;100.00
45357;BME280;31092;51.924;21.448;2023-06-22T11:55:43;100375.19;;;29.04;100.00
45357;BME280;31092;51.924;21.448;2023-06-22T11:58:08;100289.25;;;28.39;100.00
45357;BME280;31092;51.924;21.448;2023-06-22T12:00:34;100355.91;;;28.63;100.00
45357;BME280;31092;51.924;21.448;2023-06-22T12:02:59;100310.56;;;28.38;100.00
45357;BME280;31092;51.924;21.448;2023-06-22T12:05:25;100299.19;;;28.35;100.00
45357;BME280;31092;51.924;21.448;2023-06-22T12:07:53;100362.50;;;28.82;100.00
45357;BME280;31092;51.924;21.448;2023-06-22T12:10:18;100354.53;;;28.66;100.00
45357;BME280;31092;51.924;21.448;2023-06-22T12:12:44;100282.88;;;28.33;100.00
45357;BME280;31092;51.924;21.448;2023-06-22T12:15:10;100347.28;;;28.75;100.00
45357;BME280;31092;51.924;21.448;2023-06-22T12:17:36;100303.91;;;28.45;100.00
45357;BME280;31092;51.924;21.448;2023-06-22T12:20:02;100304.38;;;28.62;100.00
45357;BME280;31092;51.924;21.448;2023-06-22T12:22:31;100312.09;;;28.75;100.00
45357;BME280;31092;51.924;21.448;2023-06-22T12:24:57;100309.06;;;28.67;100.00
45357;BME280;31092;51.924;21.448;2023-06-22T12:27:22;100351.13;;;28.84;100.00
45357;BME280;31092;51.924;21.448;2023-06-22T12:29:48;100353.38;;;28.77;100.00
45357;BME280;31092;51.924;21.448;2023-06-22T12:32:14;100346.16;;;28.76;100.00
45357;BME280;31092;51.924;21.448;2023-06-22T12:34:42;100372.16;;;28.90;100.00
45357;BME280;31092;51.924;21.448;2023-06-22T12:37:07;100281.94;;;28.58;100.00
45357;BME280;31092;51.924;21.448;2023-06-22T12:39:33;100309.06;;;28.67;100.00
45357;BME280;31092;51.924;21.448;2023-06-22T12:41:58;100303.56;;;28.61;100.00
45357;BME280;31092;51.924;21.448;2023-06-22T12:44:24;100358.81;;;28.92;100.00
45357;BME280;31092;51.924;21.448;2023-06-22T12:46:49;100355.78;;;28.94;100.00
45357;BME280;31092;51.924;21.448;2023-06-22T12:49:15;100309.06;;;28.67;100.00
45357;BME280;31092;51.924;21.448;2023-06-22T12:51:41;100290.31;;;28.53;100.00
45357;BME280;31092;51.924;21.448;2023-06-22T12:54:10;100348.13;;;28.75;100.00
45357;BME280;31092;51.924;21.448;2023-06-22T12:56:37;100363.31;;;28.83;100.00
45357;BME280;31092;51.924;21.448;2023-06-22T12:59:06;100365.47;;;28.96;100.00
45357;BME280;31092;51.924;21.448;2023-06-22T13:01:32;100298.06;;;28.51;100.00
45357;BME280;31092;51.924;21.448;2023-06-22T13:03:58;100355.50;;;28.95;100.00
45357;BME280;31092;51.924;21.448;2023-06-22T13:06:24;100359.38;;;28.94;100.00
45357;BME280;31092;51.924;21.448;2023-06-22T13:08:49;100280.66;;;28.35;100.00
45357;BME280;31092;51.924;21.448;2023-06-22T13:11:15;100335.69;;;28.62;100.00
45357;BME280;31092;51.924;21.448;2023-06-22T13:13:40;100303.84;;;28.55;100.00
45357;BME280;31092;51.924;21.448;2023-06-22T13:16:06;100352.72;;;28.95;100.00